sensor_id;sensor_type;location;lat;lon;timestamp;temperature;humidity
22974;DHT22;11653;50.848;4.584;2023-09-30T00:02:15;13.00;99.90
22974;DHT22;11653;50.848;4.584;2023-09-30T00:04:40;13.10;99.90
22974;DHT22;11653;50.848;4.584;2023-09-30T00:07:06;13.00;99.90
22974;DHT22;11653;50.848;4.584;2023-09-30T00:09:32;13.00;99.90
22974;DHT22;11653;50.848;4.584;2023-09-30T00:11:57;13.00;99.90
22974;DHT22;11653;50.848;4.584;2023-09-30T00:14:23;13.00;99.90
22974;DHT22;11653;50.848;4.584;2023-09-30T00:16:49;13.00;99.90
22974;DHT22;11653;50.848;4.584;2023-09-30T00:19:16;13.00;99.90
22974;DHT22;11653;50.848;4.584;2023-09-30T00:21:41;13.10;99.90
22974;DHT22;11653;50.848;4.584;2023-09-30T00:24:07;13.10;99.90
22974;DHT22;11653;50.848;4.584;2023-09-30T00:26:33;13.00;99.90
22974;DHT22;11653;50.848;4.584;2023-09-30T00:28:59;13.00;99.90
22974;DHT22;11653;50.848;4.584;2023-09-30T00:31:24;13.00;99.90
22974;DHT22;11653;50.848;4.584;2023-09-30T00:33:50;13.00;99.90
22974;DHT22;11653;50.848;4.584;2023-09-30T00:36:15;13.00;99.90
22974;DHT22;11653;50.848;4.584;2023-09-30T00:38:42;12.90;99.90
22974;DHT22;11653;50.848;4.584;2023-09-30T00:41:07;12.80;99.90
22974;DHT22;11653;50.848;4.584;2023-09-30T00:43:33;12.80;99.90
22974;DHT22;11653;50.848;4.584;2023-09-30T00:46:06;12.70;99.90
22974;DHT22;11653;50.848;4.584;2023-09-30T00:48:34;12.60;99.90
22974;DHT22;11653;50.848;4.584;2023-09-30T00:51:01;12.60;99.90
22974;DHT22;11653;50.848;4.584;2023-09-30T00:53:27;12.60;99.90
22974;DHT22;11653;50.848;4.584;2023-09-30T00:55:53;12.60;99.90
22974;DHT22;11653;50.848;4.584;2023-09-30T00:58:22;12.70;99.90
22974;DHT22;11653;50.848;4.584;2023-09-30T01:00:51;12.70;99.90
22974;DHT22;11653;50.848;4.584;2023-09-30T01:03:18;12.70;99.90
22974;DHT22;11653;50.848;4.584;2023-09-30T01:05:45;12.70;99.90
22974;DHT22;11653;50.848;4.584;2023-09-30T01:08:10;12.70;99.90
22974;DHT22;11653;50.848;4.584;2023-09-30T01:10:36;12.70;99.90
22974;DHT22;11653;50.848;4.584;2023-09-30T01:13:02;12.70;99.90
22974;DHT22;11653;50.848;4.584;2023-09-30T01:15:29;12.80;99.90
22974;DHT22;11653;50.848;4.584;2023-09-30T01:17:55;12.80;99.90
22974;DHT22;11653;50.848;4.584;2023-09-30T01:20:20;12.80;99.90
22974;DHT22;11653;50.848;4.584;2023-09-30T01:22:49;12.70;99.90
22974;DHT22;11653;50.848;4.584;2023-09-30T01:25:14;12.70;99.90
22974;DHT22;11653;50.848;4.584;2023-09-30T01:27:40;12.70;99.90
22974;DHT22;11653;50.848;4.584;2023-09-30T01:30:06;12.70;99.90
22974;DHT22;11653;50.848;4.584;2023-09-30T01:32:36;12.80;99.90
22974;DHT22;11653;50.848;4.584;2023-09-30T01:35:02;12.90;99.90
22974;DHT22;11653;50.848;4.584;2023-09-30T01:37:28;12.80;99.90
22974;DHT22;11653;50.848;4.584;2023-09-30T01:39:54;12.80;99.90
22974;DHT22;11653;50.848;4.584;2023-09-30T01:42:20;12.80;99.90
22974;DHT22;11653;50.848;4.584;2023-09-30T01:44:46;12.90;99.90
22974;DHT22;11653;50.848;4.584;2023-09-30T01:47:12;12.90;99.90
22974;DHT22;11653;50.848;4.584;2023-09-30T01:49:38;12.80;99.90
22974;DHT22;11653;50.848;4.584;2023-09-30T01:52:04;12.80;99.90
22974;DHT22;11653;50.848;4.584;2023-09-30T01:54:29;12.80;99.90
22974;DHT22;11653;50.848;4.584;2023-09-30T01:56:55;12.80;99.90
22974;DHT22;11653;50.848;4.584;2023-09-30T01:59:21;12.80;99.90
22974;DHT22;11653;50.848;4.584;2023-09-30T02:01:47;12.80;99.90
22974;DHT22;11653;50.848;4.584;2023-09-30T02:04:14;12.70;99.90
22974;DHT22;11653;50.848;4.584;2023-09-30T02:06:41;12.70;99.90
22974;DHT22;11653;50.848;4.584;2023-09-30T02:09:07;12.80;99.90
22974;DHT22;11653;50.848;4.584;2023-09-30T02:11:35;12.80;99.90
22974;DHT22;11653;50.848;4.584;2023-09-30T02:14:02;12.80;99.90
22974;DHT22;11653;50.848;4.584;2023-09-30T02:16:27;12.70;99.90
22974;DHT22;11653;50.848;4.584;2023-09-30T02:18:53;12.70;99.90
22974;DHT22;11653;50.848;4.584;2023-09-30T02:21:19;12.70;99.90
22974;DHT22;11653;50.848;4.584;2023-09-30T02:23:47;12.70;99.90
22974;DHT22;11653;50.848;4.584;2023-09-30T02:26:16;12.60;99.90
22974;DHT22;11653;50.848;4.584;2023-09-30T02:28:43;12.60;99.90
22974;DHT22;11653;50.848;4.584;2023-09-30T02:31:09;12.60;99.90
22974;DHT22;11653;50.848;4.584;2023-09-30T02:33:34;12.60;99.90
22974;DHT22;11653;50.848;4.584;2023-09-30T02:36:07;12.50;99.90
22974;DHT22;11653;50.848;4.584;2023-09-30T02:38:34;12.50;99.90
22974;DHT22;11653;50.848;4.584;2023-09-30T02:41:02;12.50;99.90
22974;DHT22;11653;50.848;4.584;2023-09-30T02:43:28;12.50;99.90
22974;DHT22;11653;50.848;4.584;2023-09-30T02:45:53;12.50;99.90
22974;DHT22;11653;50.848;4.584;2023-09-30T02:48:19;12.40;99.90
22974;DHT22;11653;50.848;4.584;2023-09-30T02:50:45;12.40;99.90
22974;DHT22;11653;50.848;4.584;2023-09-30T02:53:11;12.30;99.90
22974;DHT22;11653;50.848;4.584;2023-09-30T02:55:39;12.40;99.90
22974;DHT22;11653;50.848;4.584;2023-09-30T02:58:04;12.30;99.90
22974;DHT22;11653;50.848;4.584;2023-09-30T03:00:30;12.40;99.90
22974;DHT22;11653;50.848;4.584;2023-09-30T03:03:00;12.30;99.90
22974;DHT22;11653;50.848;4.584;2023-09-30T03:05:27;12.30;99.90
22974;DHT22;11653;50.848;4.584;2023-09-30T03:07:53;12.20;99.90
22974;DHT22;11653;50.848;4.584;2023-09-30T03:10:21;12.30;99.90
22974;DHT22;11653;50.848;4.584;2023-09-30T03:12:56;12.30;99.90
22974;DHT22;11653;50.848;4.584;2023-09-30T03:15:22;12.30;99.90
22974;DHT22;11653;50.848;4.584;2023-09-30T03:17:49;12.20;99.90
22974;DHT22;11653;50.848;4.584;2023-09-30T03:20:14;12.20;99.90
22974;DHT22;11653;50.848;4.584;2023-09-30T03:22:44;12.20;99.90
22974;DHT22;11653;50.848;4.584;2023-09-30T03:25:12;12.10;99.90
22974;DHT22;11653;50.848;4.584;2023-09-30T03:27:40;12.20;99.90
22974;DHT22;11653;50.848;4.584;2023-09-30T03:30:07;12.20;99.90
22974;DHT22;11653;50.848;4.584;2023-09-30T03:32:34;12.20;99.90
22974;DHT22;11653;50.848;4.584;2023-09-30T03:35:02;12.20;99.90
22974;DHT22;11653;50.848;4.584;2023-09-30T03:37:28;12.20;99.90
22974;DHT22;11653;50.848;4.584;2023-09-30T03:39:57;12.10;99.90
22974;DHT22;11653;50.848;4.584;2023-09-30T03:42:23;12.10;99.90
22974;DHT22;11653;50.848;4.584;2023-09-30T03:44:49;12.10;99.90
22974;DHT22;11653;50.848;4.584;2023-09-30T03:47:18;12.00;99.90
22974;DHT22;11653;50.848;4.584;2023-09-30T03:49:44;11.90;99.90
22974;DHT22;11653;50.848;4.584;2023-09-30T03:52:11;12.00;99.90
22974;DHT22;11653;50.848;4.584;2023-09-30T03:54:37;12.00;99.90
22974;DHT22;11653;50.848;4.584;2023-09-30T03:57:03;11.80;99.90
22974;DHT22;11653;50.848;4.584;2023-09-30T03:59:29;11.80;99.90
22974;DHT22;11653;50.848;4.584;2023-09-30T04:01:56;11.80;99.90
22974;DHT22;11653;50.848;4.584;2023-09-30T04:04:23;11.80;99.90
22974;DHT22;11653;50.848;4.584;2023-09-30T04:06:49;11.80;99.90
22974;DHT22;11653;50.848;4.584;2023-09-30T04:09:17;11.80;99.90
22974;DHT22;11653;50.848;4.584;2023-09-30T04:11:43;11.80;99.90
22974;DHT22;11653;50.848;4.584;2023-09-30T04:14:09;11.70;99.90
22974;DHT22;11653;50.848;4.584;2023-09-30T04:16:35;11.80;99.90
22974;DHT22;11653;50.848;4.584;2023-09-30T04:19:03;11.70;99.90
22974;DHT22;11653;50.848;4.584;2023-09-30T04:21:29;11.70;99.90
22974;DHT22;11653;50.848;4.584;2023-09-30T04:23:57;11.70;99.90
22974;DHT22;11653;50.848;4.584;2023-09-30T04:26:23;11.70;99.90
22974;DHT22;11653;50.848;4.584;2023-09-30T04:28:49;11.70;99.90
22974;DHT22;11653;50.848;4.584;2023-09-30T04:31:15;11.70;99.90
22974;DHT22;11653;50.848;4.584;2023-09-30T04:33:41;11.60;99.90
22974;DHT22;11653;50.848;4.584;2023-09-30T04:36:08;11.50;99.90
22974;DHT22;11653;50.848;4.584;2023-09-30T04:38:34;11.60;99.90
22974;DHT22;11653;50.848;4.584;2023-09-30T04:41:03;11.60;99.90
22974;DHT22;11653;50.848;4.584;2023-09-30T04:43:29;11.60;99.90
22974;DHT22;11653;50.848;4.584;2023-09-30T04:45:55;11.60;99.90
22974;DHT22;11653;50.848;4.584;2023-09-30T04:48:23;11.60;99.90
22974;DHT22;11653;50.848;4.584;2023-09-30T04:50:49;11.60;99.90
22974;DHT22;11653;50.848;4.584;2023-09-30T04:53:14;11.60;99.90
22974;DHT22;11653;50.848;4.584;2023-09-30T04:55:43;11.50;99.90
22974;DHT22;11653;50.848;4.584;2023-09-30T04:58:08;11.60;99.90
22974;DHT22;11653;50.848;4.584;2023-09-30T05:00:34;11.60;99.90
22974;DHT22;11653;50.848;4.584;2023-09-30T05:03:00;11.70;99.90
22974;DHT22;11653;50.848;4.584;2023-09-30T05:05:26;11.70;99.90
22974;DHT22;11653;50.848;4.584;2023-09-30T05:07:54;11.70;99.90
22974;DHT22;11653;50.848;4.584;2023-09-30T05:10:20;11.80;99.90
22974;DHT22;11653;50.848;4.584;2023-09-30T05:12:45;11.80;99.90
22974;DHT22;11653;50.848;4.584;2023-09-30T05:15:12;11.80;99.90
22974;DHT22;11653;50.848;4.584;2023-09-30T05:17:39;11.90;99.90
22974;DHT22;11653;50.848;4.584;2023-09-30T05:20:05;12.00;99.90
22974;DHT22;11653;50.848;4.584;2023-09-30T05:22:33;12.00;99.90
22974;DHT22;11653;50.848;4.584;2023-09-30T05:24:59;12.10;99.90
22974;DHT22;11653;50.848;4.584;2023-09-30T05:27:26;12.10;99.90
22974;DHT22;11653;50.848;4.584;2023-09-30T05:29:52;12.10;99.90
22974;DHT22;11653;50.848;4.584;2023-09-30T05:32:18;12.10;99.90
22974;DHT22;11653;50.848;4.584;2023-09-30T05:34:44;12.20;99.90
22974;DHT22;11653;50.848;4.584;2023-09-30T05:37:10;12.20;99.90
22974;DHT22;11653;50.848;4.584;2023-09-30T05:39:37;12.30;99.90
22974;DHT22;11653;50.848;4.584;2023-09-30T05:42:03;12.40;99.90
22974;DHT22;11653;50.848;4.584;2023-09-30T05:44:29;12.40;99.90
22974;DHT22;11653;50.848;4.584;2023-09-30T05:46:54;12.60;99.90
22974;DHT22;11653;50.848;4.584;2023-09-30T05:49:20;12.50;99.90
22974;DHT22;11653;50.848;4.584;2023-09-30T05:51:46;12.50;99.90
22974;DHT22;11653;50.848;4.584;2023-09-30T05:54:16;12.60;99.90
22974;DHT22;11653;50.848;4.584;2023-09-30T05:56:42;12.60;99.90
22974;DHT22;11653;50.848;4.584;2023-09-30T05:59:11;12.60;99.90
22974;DHT22;11653;50.848;4.584;2023-09-30T06:01:37;12.70;99.90
22974;DHT22;11653;50.848;4.584;2023-09-30T06:04:06;12.70;99.90
22974;DHT22;11653;50.848;4.584;2023-09-30T06:06:32;12.70;99.90
22974;DHT22;11653;50.848;4.584;2023-09-30T06:08:58;12.90;99.90
22974;DHT22;11653;50.848;4.584;2023-09-30T06:11:25;12.90;99.90
22974;DHT22;11653;50.848;4.584;2023-09-30T06:13:57;13.00;99.90
22974;DHT22;11653;50.848;4.584;2023-09-30T06:16:27;13.10;99.90
22974;DHT22;11653;50.848;4.584;2023-09-30T06:18:53;13.20;99.90
22974;DHT22;11653;50.848;4.584;2023-09-30T06:21:23;13.20;99.90
22974;DHT22;11653;50.848;4.584;2023-09-30T06:23:50;13.30;99.90
22974;DHT22;11653;50.848;4.584;2023-09-30T06:26:19;13.40;99.90
22974;DHT22;11653;50.848;4.584;2023-09-30T06:28:46;13.50;99.90
22974;DHT22;11653;50.848;4.584;2023-09-30T06:31:14;13.60;99.90
22974;DHT22;11653;50.848;4.584;2023-09-30T06:33:41;13.70;99.90
22974;DHT22;11653;50.848;4.584;2023-09-30T06:36:13;13.90;99.90
22974;DHT22;11653;50.848;4.584;2023-09-30T06:38:40;14.00;99.90
22974;DHT22;11653;50.848;4.584;2023-09-30T06:41:07;14.20;99.90
22974;DHT22;11653;50.848;4.584;2023-09-30T06:43:34;14.40;99.90
22974;DHT22;11653;50.848;4.584;2023-09-30T06:46:06;14.60;99.90
22974;DHT22;11653;50.848;4.584;2023-09-30T06:48:35;15.10;99.90
22974;DHT22;11653;50.848;4.584;2023-09-30T06:51:03;15.40;99.90
22974;DHT22;11653;50.848;4.584;2023-09-30T06:53:29;15.80;99.90
22974;DHT22;11653;50.848;4.584;2023-09-30T06:55:55;16.30;99.90
22974;DHT22;11653;50.848;4.584;2023-09-30T06:58:20;16.70;99.90
22974;DHT22;11653;50.848;4.584;2023-09-30T07:00:55;17.20;99.90
22974;DHT22;11653;50.848;4.584;2023-09-30T07:03:21;17.80;99.90
22974;DHT22;11653;50.848;4.584;2023-09-30T07:05:47;18.50;99.90
22974;DHT22;11653;50.848;4.584;2023-09-30T07:08:17;18.90;99.90
22974;DHT22;11653;50.848;4.584;2023-09-30T07:10:44;19.40;99.90
22974;DHT22;11653;50.848;4.584;2023-09-30T07:13:17;19.90;99.90
22974;DHT22;11653;50.848;4.584;2023-09-30T07:15:43;20.40;99.90
22974;DHT22;11653;50.848;4.584;2023-09-30T07:18:09;20.90;99.90
22974;DHT22;11653;50.848;4.584;2023-09-30T07:20:37;21.30;99.90
22974;DHT22;11653;50.848;4.584;2023-09-30T07:23:03;21.70;99.90
22974;DHT22;11653;50.848;4.584;2023-09-30T07:25:29;22.20;99.90
22974;DHT22;11653;50.848;4.584;2023-09-30T07:27:58;22.70;99.90
22974;DHT22;11653;50.848;4.584;2023-09-30T07:30:25;23.20;99.90
22974;DHT22;11653;50.848;4.584;2023-09-30T07:32:51;23.40;99.90
22974;DHT22;11653;50.848;4.584;2023-09-30T07:35:17;23.60;99.90
22974;DHT22;11653;50.848;4.584;2023-09-30T07:37:44;23.70;99.90
22974;DHT22;11653;50.848;4.584;2023-09-30T07:40:10;23.60;99.90
22974;DHT22;11653;50.848;4.584;2023-09-30T07:42:36;23.70;99.90
22974;DHT22;11653;50.848;4.584;2023-09-30T07:45:05;23.80;99.90
22974;DHT22;11653;50.848;4.584;2023-09-30T07:47:31;23.90;99.90
22974;DHT22;11653;50.848;4.584;2023-09-30T07:50:02;24.00;99.90
22974;DHT22;11653;50.848;4.584;2023-09-30T07:52:31;24.40;99.90
22974;DHT22;11653;50.848;4.584;2023-09-30T07:54:57;24.70;99.90
22974;DHT22;11653;50.848;4.584;2023-09-30T07:57:23;25.00;99.90
22974;DHT22;11653;50.848;4.584;2023-09-30T07:59:48;25.30;99.90
22974;DHT22;11653;50.848;4.584;2023-09-30T08:02:14;25.80;99.90
22974;DHT22;11653;50.848;4.584;2023-09-30T08:04:39;25.90;99.90
22974;DHT22;11653;50.848;4.584;2023-09-30T08:07:05;25.90;99.90
22974;DHT22;11653;50.848;4.584;2023-09-30T08:09:31;26.00;99.90
22974;DHT22;11653;50.848;4.584;2023-09-30T08:11:56;26.10;99.90
22974;DHT22;11653;50.848;4.584;2023-09-30T08:14:22;26.60;99.90
22974;DHT22;11653;50.848;4.584;2023-09-30T08:16:48;26.90;98.60
22974;DHT22;11653;50.848;4.584;2023-09-30T08:19:15;27.30;97.80
22974;DHT22;11653;50.848;4.584;2023-09-30T08:21:40;27.50;97.30
22974;DHT22;11653;50.848;4.584;2023-09-30T08:24:06;27.80;96.60
22974;DHT22;11653;50.848;4.584;2023-09-30T08:26:32;28.00;96.50
22974;DHT22;11653;50.848;4.584;2023-09-30T08:28:59;28.20;95.10
22974;DHT22;11653;50.848;4.584;2023-09-30T08:31:24;28.10;95.20
22974;DHT22;11653;50.848;4.584;2023-09-30T08:33:50;28.40;94.60
22974;DHT22;11653;50.848;4.584;2023-09-30T08:36:16;28.80;94.10
22974;DHT22;11653;50.848;4.584;2023-09-30T08:38:41;28.90;93.80
22974;DHT22;11653;50.848;4.584;2023-09-30T08:41:08;29.10;94.20
22974;DHT22;11653;50.848;4.584;2023-09-30T08:43:38;29.10;92.70
22974;DHT22;11653;50.848;4.584;2023-09-30T08:46:04;29.10;91.90
22974;DHT22;11653;50.848;4.584;2023-09-30T08:48:32;29.20;92.90
22974;DHT22;11653;50.848;4.584;2023-09-30T08:50:59;29.50;91.80
22974;DHT22;11653;50.848;4.584;2023-09-30T08:53:25;29.40;92.30
22974;DHT22;11653;50.848;4.584;2023-09-30T08:55:55;29.70;92.00
22974;DHT22;11653;50.848;4.584;2023-09-30T08:58:27;30.10;90.90
22974;DHT22;11653;50.848;4.584;2023-09-30T09:00:53;30.30;90.30
22974;DHT22;11653;50.848;4.584;2023-09-30T09:03:19;30.50;89.20
22974;DHT22;11653;50.848;4.584;2023-09-30T09:05:46;30.50;89.30
22974;DHT22;11653;50.848;4.584;2023-09-30T09:08:12;30.60;88.10
22974;DHT22;11653;50.848;4.584;2023-09-30T09:10:54;30.80;87.30
22974;DHT22;11653;50.848;4.584;2023-09-30T09:13:22;31.60;85.30
22974;DHT22;11653;50.848;4.584;2023-09-30T09:15:47;32.00;83.30
22974;DHT22;11653;50.848;4.584;2023-09-30T09:18:31;32.20;82.30
22974;DHT22;11653;50.848;4.584;2023-09-30T09:21:15;32.40;81.20
22974;DHT22;11653;50.848;4.584;2023-09-30T09:23:46;32.50;80.20
22974;DHT22;11653;50.848;4.584;2023-09-30T09:26:31;32.40;79.40
22974;DHT22;11653;50.848;4.584;2023-09-30T09:29:04;32.40;78.70
22974;DHT22;11653;50.848;4.584;2023-09-30T09:31:34;31.90;79.40
22974;DHT22;11653;50.848;4.584;2023-09-30T09:34:04;32.10;80.90
22974;DHT22;11653;50.848;4.584;2023-09-30T09:36:39;32.30;78.80
22974;DHT22;11653;50.848;4.584;2023-09-30T09:39:06;32.30;78.20
22974;DHT22;11653;50.848;4.584;2023-09-30T09:41:32;32.20;78.10
22974;DHT22;11653;50.848;4.584;2023-09-30T09:43:59;32.00;77.60
22974;DHT22;11653;50.848;4.584;2023-09-30T09:46:25;32.00;76.20
22974;DHT22;11653;50.848;4.584;2023-09-30T09:48:53;32.10;77.00
22974;DHT22;11653;50.848;4.584;2023-09-30T09:51:20;32.20;78.50
22974;DHT22;11653;50.848;4.584;2023-09-30T09:53:48;32.50;75.60
22974;DHT22;11653;50.848;4.584;2023-09-30T09:56:15;32.30;74.60
22974;DHT22;11653;50.848;4.584;2023-09-30T09:58:42;31.90;74.50
22974;DHT22;11653;50.848;4.584;2023-09-30T10:01:10;31.20;76.00
22974;DHT22;11653;50.848;4.584;2023-09-30T10:03:37;30.60;77.30
22974;DHT22;11653;50.848;4.584;2023-09-30T10:06:03;29.70;79.30
22974;DHT22;11653;50.848;4.584;2023-09-30T10:08:42;28.90;80.60
22974;DHT22;11653;50.848;4.584;2023-09-30T10:11:17;28.70;84.60
22974;DHT22;11653;50.848;4.584;2023-09-30T10:13:54;29.20;84.10
22974;DHT22;11653;50.848;4.584;2023-09-30T10:19:09;30.50;78.90
22974;DHT22;11653;50.848;4.584;2023-09-30T10:21:35;30.40;80.70
22974;DHT22;11653;50.848;4.584;2023-09-30T10:40:49;25.70;90.60
22974;DHT22;11653;50.848;4.584;2023-09-30T10:45:56;25.50;92.50
22974;DHT22;11653;50.848;4.584;2023-09-30T10:50:52;27.40;90.20
22974;DHT22;11653;50.848;4.584;2023-09-30T10:53:18;28.50;84.50
22974;DHT22;11653;50.848;4.584;2023-09-30T10:55:53;29.50;80.10
22974;DHT22;11653;50.848;4.584;2023-09-30T10:58:20;30.30;77.50
22974;DHT22;11653;50.848;4.584;2023-09-30T11:00:53;31.10;77.10
22974;DHT22;11653;50.848;4.584;2023-09-30T11:03:20;31.00;78.20
22974;DHT22;11653;50.848;4.584;2023-09-30T11:05:50;30.80;77.90
22974;DHT22;11653;50.848;4.584;2023-09-30T11:08:21;30.20;78.10
22974;DHT22;11653;50.848;4.584;2023-09-30T11:10:51;29.20;81.70
22974;DHT22;11653;50.848;4.584;2023-09-30T11:13:18;28.20;84.40
22974;DHT22;11653;50.848;4.584;2023-09-30T11:15:45;27.70;84.90
22974;DHT22;11653;50.848;4.584;2023-09-30T11:18:18;27.30;87.60
22974;DHT22;11653;50.848;4.584;2023-09-30T11:20:44;27.00;87.30
22974;DHT22;11653;50.848;4.584;2023-09-30T11:23:11;26.60;87.10
22974;DHT22;11653;50.848;4.584;2023-09-30T11:25:38;26.40;90.50
22974;DHT22;11653;50.848;4.584;2023-09-30T11:28:17;26.50;89.10
22974;DHT22;11653;50.848;4.584;2023-09-30T11:30:58;26.50;90.60
22974;DHT22;11653;50.848;4.584;2023-09-30T11:33:24;26.40;90.20
22974;DHT22;11653;50.848;4.584;2023-09-30T11:36:03;26.30;90.30
22974;DHT22;11653;50.848;4.584;2023-09-30T11:38:32;26.10;90.30
22974;DHT22;11653;50.848;4.584;2023-09-30T11:41:02;25.90;90.60
22974;DHT22;11653;50.848;4.584;2023-09-30T11:43:30;26.20;91.20
22974;DHT22;11653;50.848;4.584;2023-09-30T11:46:11;26.80;87.10
22974;DHT22;11653;50.848;4.584;2023-09-30T11:48:56;27.80;84.70
22974;DHT22;11653;50.848;4.584;2023-09-30T11:51:22;28.60;82.90
22974;DHT22;11653;50.848;4.584;2023-09-30T11:53:52;29.50;78.40
22974;DHT22;11653;50.848;4.584;2023-09-30T11:56:19;30.40;76.10
22974;DHT22;11653;50.848;4.584;2023-09-30T11:58:45;31.00;70.30
22974;DHT22;11653;50.848;4.584;2023-09-30T12:01:11;31.10;70.60
22974;DHT22;11653;50.848;4.584;2023-09-30T12:03:39;31.10;71.10
22974;DHT22;11653;50.848;4.584;2023-09-30T12:06:08;31.30;69.70
22974;DHT22;11653;50.848;4.584;2023-09-30T12:08:39;31.40;68.30
22974;DHT22;11653;50.848;4.584;2023-09-30T12:11:05;31.20;69.80
22974;DHT22;11653;50.848;4.584;2023-09-30T12:13:31;31.50;67.80
22974;DHT22;11653;50.848;4.584;2023-09-30T12:15:56;31.60;64.40
22974;DHT22;11653;50.848;4.584;2023-09-30T12:18:23;31.30;67.40
22974;DHT22;11653;50.848;4.584;2023-09-30T12:20:52;30.80;68.10
22974;DHT22;11653;50.848;4.584;2023-09-30T12:23:19;30.80;69.30
22974;DHT22;11653;50.848;4.584;2023-09-30T12:25:46;31.00;70.20
22974;DHT22;11653;50.848;4.584;2023-09-30T12:28:12;31.10;71.00
22974;DHT22;11653;50.848;4.584;2023-09-30T12:30:39;31.20;70.30
22974;DHT22;11653;50.848;4.584;2023-09-30T12:33:06;31.20;70.00
22974;DHT22;11653;50.848;4.584;2023-09-30T12:35:32;31.30;69.40
22974;DHT22;11653;50.848;4.584;2023-09-30T12:37:58;31.30;67.50
22974;DHT22;11653;50.848;4.584;2023-09-30T12:40:24;31.20;68.00
22974;DHT22;11653;50.848;4.584;2023-09-30T12:42:50;30.80;70.10
22974;DHT22;11653;50.848;4.584;2023-09-30T12:45:16;30.60;69.90
22974;DHT22;11653;50.848;4.584;2023-09-30T12:47:43;30.30;70.50
22974;DHT22;11653;50.848;4.584;2023-09-30T12:50:09;29.80;70.50
22974;DHT22;11653;50.848;4.584;2023-09-30T12:52:36;29.10;72.70
22974;DHT22;11653;50.848;4.584;2023-09-30T12:55:02;28.40;74.70
22974;DHT22;11653;50.848;4.584;2023-09-30T12:57:28;27.70;75.40
22974;DHT22;11653;50.848;4.584;2023-09-30T12:59:53;27.20;76.50
22974;DHT22;11653;50.848;4.584;2023-09-30T13:02:19;26.90;78.70
22974;DHT22;11653;50.848;4.584;2023-09-30T13:04:46;26.70;79.90
22974;DHT22;11653;50.848;4.584;2023-09-30T13:07:12;26.40;80.80
22974;DHT22;11653;50.848;4.584;2023-09-30T13:09:42;25.90;82.20
22974;DHT22;11653;50.848;4.584;2023-09-30T13:12:08;25.70;81.80
22974;DHT22;11653;50.848;4.584;2023-09-30T13:14:34;25.40;85.30
22974;DHT22;11653;50.848;4.584;2023-09-30T13:17:00;25.20;89.70
22974;DHT22;11653;50.848;4.584;2023-09-30T13:19:26;25.00;88.30
22974;DHT22;11653;50.848;4.584;2023-09-30T13:21:52;24.80;88.60
22974;DHT22;11653;50.848;4.584;2023-09-30T13:24:22;24.60;87.00
22974;DHT22;11653;50.848;4.584;2023-09-30T13:26:48;24.40;87.50
22974;DHT22;11653;50.848;4.584;2023-09-30T13:29:15;24.00;87.90
22974;DHT22;11653;50.848;4.584;2023-09-30T13:31:42;23.90;90.10
22974;DHT22;11653;50.848;4.584;2023-09-30T13:34:08;23.70;91.50
22974;DHT22;11653;50.848;4.584;2023-09-30T13:36:34;23.70;91.30
22974;DHT22;11653;50.848;4.584;2023-09-30T13:39:01;23.90;90.90
22974;DHT22;11653;50.848;4.584;2023-09-30T13:41:33;24.10;90.90
22974;DHT22;11653;50.848;4.584;2023-09-30T13:43:58;24.20;90.90
22974;DHT22;11653;50.848;4.584;2023-09-30T13:46:24;24.00;92.60
22974;DHT22;11653;50.848;4.584;2023-09-30T13:48:51;24.00;91.70
22974;DHT22;11653;50.848;4.584;2023-09-30T13:51:18;23.90;91.20
22974;DHT22;11653;50.848;4.584;2023-09-30T13:53:43;23.90;91.70
22974;DHT22;11653;50.848;4.584;2023-09-30T13:56:09;24.10;92.60
22974;DHT22;11653;50.848;4.584;2023-09-30T13:58:36;24.00;92.60
22974;DHT22;11653;50.848;4.584;2023-09-30T14:01:02;23.90;93.20
22974;DHT22;11653;50.848;4.584;2023-09-30T14:03:28;23.70;91.80
22974;DHT22;11653;50.848;4.584;2023-09-30T14:05:54;23.40;92.10
22974;DHT22;11653;50.848;4.584;2023-09-30T14:08:19;23.40;94.00
22974;DHT22;11653;50.848;4.584;2023-09-30T14:10:45;23.30;94.50
22974;DHT22;11653;50.848;4.584;2023-09-30T14:13:11;23.40;93.40
22974;DHT22;11653;50.848;4.584;2023-09-30T14:15:37;23.40;93.10
22974;DHT22;11653;50.848;4.584;2023-09-30T14:18:03;23.30;93.20
22974;DHT22;11653;50.848;4.584;2023-09-30T14:20:29;23.40;93.30
22974;DHT22;11653;50.848;4.584;2023-09-30T14:22:55;23.50;93.20
22974;DHT22;11653;50.848;4.584;2023-09-30T14:25:21;23.50;92.00
22974;DHT22;11653;50.848;4.584;2023-09-30T14:27:48;23.60;91.30
22974;DHT22;11653;50.848;4.584;2023-09-30T14:30:14;23.60;91.40
22974;DHT22;11653;50.848;4.584;2023-09-30T14:32:41;23.50;91.90
22974;DHT22;11653;50.848;4.584;2023-09-30T14:35:07;23.20;91.90
22974;DHT22;11653;50.848;4.584;2023-09-30T14:37:35;23.00;93.00
22974;DHT22;11653;50.848;4.584;2023-09-30T14:40:01;23.00;93.10
22974;DHT22;11653;50.848;4.584;2023-09-30T14:42:28;23.00;93.20
22974;DHT22;11653;50.848;4.584;2023-09-30T14:44:56;23.20;94.20
22974;DHT22;11653;50.848;4.584;2023-09-30T14:47:21;23.30;94.20
22974;DHT22;11653;50.848;4.584;2023-09-30T14:49:47;23.30;93.90
22974;DHT22;11653;50.848;4.584;2023-09-30T14:52:13;23.20;92.90
22974;DHT22;11653;50.848;4.584;2023-09-30T14:54:39;23.10;93.20
22974;DHT22;11653;50.848;4.584;2023-09-30T14:57:05;23.10;94.60
22974;DHT22;11653;50.848;4.584;2023-09-30T14:59:33;23.10;93.90
22974;DHT22;11653;50.848;4.584;2023-09-30T15:01:59;23.10;95.30
22974;DHT22;11653;50.848;4.584;2023-09-30T15:04:25;23.20;95.20
22974;DHT22;11653;50.848;4.584;2023-09-30T15:06:51;23.20;95.70
22974;DHT22;11653;50.848;4.584;2023-09-30T15:09:16;23.30;93.90
22974;DHT22;11653;50.848;4.584;2023-09-30T15:11:42;23.20;94.10
22974;DHT22;11653;50.848;4.584;2023-09-30T15:14:08;23.10;94.00
22974;DHT22;11653;50.848;4.584;2023-09-30T15:16:33;23.00;95.00
22974;DHT22;11653;50.848;4.584;2023-09-30T15:19:00;22.80;96.90
22974;DHT22;11653;50.848;4.584;2023-09-30T15:21:26;22.60;97.50
22974;DHT22;11653;50.848;4.584;2023-09-30T15:23:52;22.60;98.20
22974;DHT22;11653;50.848;4.584;2023-09-30T15:26:18;22.60;99.00
22974;DHT22;11653;50.848;4.584;2023-09-30T15:28:45;22.50;97.10
22974;DHT22;11653;50.848;4.584;2023-09-30T15:31:13;22.50;98.90
22974;DHT22;11653;50.848;4.584;2023-09-30T15:33:39;22.60;99.10
22974;DHT22;11653;50.848;4.584;2023-09-30T15:36:12;22.60;99.10
22974;DHT22;11653;50.848;4.584;2023-09-30T15:38:38;22.50;99.90
22974;DHT22;11653;50.848;4.584;2023-09-30T15:41:04;22.40;99.90
22974;DHT22;11653;50.848;4.584;2023-09-30T15:43:30;22.30;99.90
22974;DHT22;11653;50.848;4.584;2023-09-30T15:45:58;22.20;99.70
22974;DHT22;11653;50.848;4.584;2023-09-30T15:48:24;22.10;99.80
22974;DHT22;11653;50.848;4.584;2023-09-30T15:50:50;22.00;98.50
22974;DHT22;11653;50.848;4.584;2023-09-30T15:53:16;22.10;99.90
22974;DHT22;11653;50.848;4.584;2023-09-30T15:55:42;22.00;99.90